sensor_id;sensor_type;location;lat;lon;timestamp;pressure;altitude;pressure_sealevel;temperature;humidity
77216;BME280;66210;53.282;9.864;2023-04-03T00:00:04;102753.94;;;0.07;78.21
77216;BME280;66210;53.282;9.864;2023-04-03T00:02:31;102757.69;;;0.03;78.45
77216;BME280;66210;53.282;9.864;2023-04-03T00:04:58;102759.09;;;0.01;77.75
77216;BME280;66210;53.282;9.864;2023-04-03T00:07:25;102760.31;;;-0.03;78.28
77216;BME280;66210;53.282;9.864;2023-04-03T00:09:52;102764.44;;;-0.03;78.55
77216;BME280;66210;53.282;9.864;2023-04-03T00:12:18;102776.72;;;-0.05;78.33
77216;BME280;66210;53.282;9.864;2023-04-03T00:14:45;102771.56;;;-0.06;78.26
77216;BME280;66210;53.282;9.864;2023-04-03T00:17:12;102779.59;;;-0.09;78.46
77216;BME280;66210;53.282;9.864;2023-04-03T00:19:38;102784.38;;;-0.10;78.65
77216;BME280;66210;53.282;9.864;2023-04-03T00:22:05;102778.31;;;-0.12;78.76
77216;BME280;66210;53.282;9.864;2023-04-03T00:24:31;102775.44;;;-0.15;78.11
77216;BME280;66210;53.282;9.864;2023-04-03T00:26:58;102777.94;;;-0.15;78.02
77216;BME280;66210;53.282;9.864;2023-04-03T00:29:25;102775.25;;;-0.17;78.05
77216;BME280;66210;53.282;9.864;2023-04-03T00:31:51;102769.91;;;-0.20;78.00
77216;BME280;66210;53.282;9.864;2023-04-03T00:34:18;102773.97;;;-0.21;78.26
77216;BME280;66210;53.282;9.864;2023-04-03T00:36:46;102774.69;;;-0.22;78.00
77216;BME280;66210;53.282;9.864;2023-04-03T00:39:13;102781.09;;;-0.24;77.92
77216;BME280;66210;53.282;9.864;2023-04-03T00:41:39;102776.63;;;-0.26;78.17
77216;BME280;66210;53.282;9.864;2023-04-03T00:47:11;102784.09;;;-0.33;78.70
77216;BME280;66210;53.282;9.864;2023-04-03T00:49:38;102784.97;;;-0.33;78.63
77216;BME280;66210;53.282;9.864;2023-04-03T00:52:09;102779.78;;;-0.34;78.27
77216;BME280;66210;53.282;9.864;2023-04-03T00:54:37;102779.09;;;-0.33;78.24
77216;BME280;66210;53.282;9.864;2023-04-03T00:57:05;102790.88;;;-0.32;78.04
77216;BME280;66210;53.282;9.864;2023-04-03T00:59:35;102781.59;;;-0.33;78.23
77216;BME280;66210;53.282;9.864;2023-04-03T01:02:05;102789.25;;;-0.32;77.96
77216;BME280;66210;53.282;9.864;2023-04-03T01:04:37;102783.19;;;-0.34;78.36
77216;BME280;66210;53.282;9.864;2023-04-03T01:07:11;102779.94;;;-0.40;78.23
77216;BME280;66210;53.282;9.864;2023-04-03T01:09:39;102788.53;;;-0.38;78.08
77216;BME280;66210;53.282;9.864;2023-04-03T01:12:23;102786.72;;;-0.39;78.26
77216;BME280;66210;53.282;9.864;2023-04-03T01:14:59;102784.94;;;-0.40;78.27
77216;BME280;66210;53.282;9.864;2023-04-03T01:17:38;102782.44;;;-0.40;77.71
77216;BME280;66210;53.282;9.864;2023-04-03T01:22:52;102766.66;;;-0.53;78.25
77216;BME280;66210;53.282;9.864;2023-04-03T01:25:23;102778.47;;;-0.45;77.97
77216;BME280;66210;53.282;9.864;2023-04-03T01:27:49;102790.78;;;-0.47;78.27
77216;BME280;66210;53.282;9.864;2023-04-03T01:30:18;102783.09;;;-0.48;78.39
77216;BME280;66210;53.282;9.864;2023-04-03T01:32:45;102787.72;;;-0.51;78.49
77216;BME280;66210;53.282;9.864;2023-04-03T01:35:12;102782.53;;;-0.53;78.71
77216;BME280;66210;53.282;9.864;2023-04-03T01:37:39;102782.16;;;-0.56;78.66
77216;BME280;66210;53.282;9.864;2023-04-03T01:40:06;102781.97;;;-0.57;78.84
77216;BME280;66210;53.282;9.864;2023-04-03T01:42:33;102781.41;;;-0.62;78.85
77216;BME280;66210;53.282;9.864;2023-04-03T01:45:00;102785.00;;;-0.60;79.27
77216;BME280;66210;53.282;9.864;2023-04-03T01:47:26;102781.00;;;-0.65;79.04
77216;BME280;66210;53.282;9.864;2023-04-03T01:49:53;102789.59;;;-0.63;78.66
77216;BME280;66210;53.282;9.864;2023-04-03T01:52:20;102789.41;;;-0.65;79.01
77216;BME280;66210;53.282;9.864;2023-04-03T01:54:46;102791.00;;;-0.65;79.07
77216;BME280;66210;53.282;9.864;2023-04-03T01:57:13;102787.59;;;-0.66;79.00
77216;BME280;66210;53.282;9.864;2023-04-03T01:59:41;102790.09;;;-0.66;78.76
77216;BME280;66210;53.282;9.864;2023-04-03T02:02:08;102790.81;;;-0.67;78.71
77216;BME280;66210;53.282;9.864;2023-04-03T02:04:35;102798.13;;;-0.68;78.75
77216;BME280;66210;53.282;9.864;2023-04-03T02:07:01;102789.38;;;-0.72;78.93
77216;BME280;66210;53.282;9.864;2023-04-03T02:09:28;102803.44;;;-0.72;79.18
77216;BME280;66210;53.282;9.864;2023-04-03T02:11:55;102798.94;;;-0.75;79.36
77216;BME280;66210;53.282;9.864;2023-04-03T02:14:21;102805.34;;;-0.77;79.57
77216;BME280;66210;53.282;9.864;2023-04-03T02:16:50;102796.78;;;-0.79;79.38
77216;BME280;66210;53.282;9.864;2023-04-03T02:19:16;102800.88;;;-0.79;79.50
77216;BME280;66210;53.282;9.864;2023-04-03T02:21:43;102792.31;;;-0.81;79.64
77216;BME280;66210;53.282;9.864;2023-04-03T02:24:10;102800.31;;;-0.84;79.61
77216;BME280;66210;53.282;9.864;2023-04-03T02:26:36;102797.63;;;-0.86;79.65
77216;BME280;66210;53.282;9.864;2023-04-03T02:29:03;102809.00;;;-0.88;79.63
77216;BME280;66210;53.282;9.864;2023-04-03T02:31:30;102804.72;;;-0.89;79.38
77216;BME280;66210;53.282;9.864;2023-04-03T02:33:57;102805.63;;;-0.88;79.41
77216;BME280;66210;53.282;9.864;2023-04-03T02:36:24;102808.09;;;-0.88;79.23
77216;BME280;66210;53.282;9.864;2023-04-03T02:38:51;102794.53;;;-0.90;78.94
77216;BME280;66210;53.282;9.864;2023-04-03T02:41:17;102808.44;;;-0.92;78.84
77216;BME280;66210;53.282;9.864;2023-04-03T02:43:44;102808.25;;;-0.94;79.01
77216;BME280;66210;53.282;9.864;2023-04-03T02:46:11;102812.31;;;-0.94;79.42
77216;BME280;66210;53.282;9.864;2023-04-03T02:48:37;102811.28;;;-0.96;79.91
77216;BME280;66210;53.282;9.864;2023-04-03T02:51:04;102814.25;;;-0.99;80.11
77216;BME280;66210;53.282;9.864;2023-04-03T02:53:31;102804.78;;;-1.01;80.38
77216;BME280;66210;53.282;9.864;2023-04-03T02:55:58;102808.00;;;-1.02;79.93
77216;BME280;66210;53.282;9.864;2023-04-03T02:58:24;102809.41;;;-1.05;80.02
77216;BME280;66210;53.282;9.864;2023-04-03T03:00:51;102812.41;;;-1.07;80.54
77216;BME280;66210;53.282;9.864;2023-04-03T03:03:18;102812.22;;;-1.09;80.83
77216;BME280;66210;53.282;9.864;2023-04-03T03:05:45;102815.22;;;-1.11;80.24
77216;BME280;66210;53.282;9.864;2023-04-03T03:08:11;102816.63;;;-1.13;80.96
77216;BME280;66210;53.282;9.864;2023-04-03T03:10:38;102813.03;;;-1.15;80.11
77216;BME280;66210;53.282;9.864;2023-04-03T03:13:05;102802.47;;;-1.20;80.58
77216;BME280;66210;53.282;9.864;2023-04-03T03:15:32;102794.03;;;-1.28;80.46
77216;BME280;66210;53.282;9.864;2023-04-03T03:17:58;102810.47;;;-1.22;80.13
77216;BME280;66210;53.282;9.864;2023-04-03T03:20:25;102808.66;;;-1.23;80.12
77216;BME280;66210;53.282;9.864;2023-04-03T03:22:52;102814.88;;;-1.27;80.15
77216;BME280;66210;53.282;9.864;2023-04-03T03:25:18;102808.09;;;-1.28;80.05
77216;BME280;66210;53.282;9.864;2023-04-03T03:27:45;102813.06;;;-1.28;80.21
77216;BME280;66210;53.282;9.864;2023-04-03T03:30:12;102810.41;;;-1.30;80.04
77216;BME280;66210;53.282;9.864;2023-04-03T03:32:39;102816.78;;;-1.32;79.68
77216;BME280;66210;53.282;9.864;2023-04-03T03:35:05;102818.41;;;-1.32;80.82
77216;BME280;66210;53.282;9.864;2023-04-03T03:37:32;102815.72;;;-1.34;80.85
77216;BME280;66210;53.282;9.864;2023-04-03T03:39:59;102821.38;;;-1.35;80.74
77216;BME280;66210;53.282;9.864;2023-04-03T03:42:26;102816.38;;;-1.35;80.25
77216;BME280;66210;53.282;9.864;2023-04-03T03:44:52;102822.78;;;-1.37;81.19
77216;BME280;66210;53.282;9.864;2023-04-03T03:47:19;102820.28;;;-1.37;79.78
77216;BME280;66210;53.282;9.864;2023-04-03T03:49:46;102823.69;;;-1.36;80.09
77216;BME280;66210;53.282;9.864;2023-04-03T03:52:13;102825.28;;;-1.37;80.33
77216;BME280;66210;53.282;9.864;2023-04-03T03:54:40;102826.19;;;-1.36;80.83
77216;BME280;66210;53.282;9.864;2023-04-03T03:57:06;102812.63;;;-1.38;81.11
77216;BME280;66210;53.282;9.864;2023-04-03T03:59:33;102823.13;;;-1.41;80.92
77216;BME280;66210;53.282;9.864;2023-04-03T04:02:00;102817.03;;;-1.43;81.36
77216;BME280;66210;53.282;9.864;2023-04-03T04:04:27;102822.31;;;-1.47;80.51
77216;BME280;66210;53.282;9.864;2023-04-03T04:06:54;102818.03;;;-1.48;80.70
77216;BME280;66210;53.282;9.864;2023-04-03T04:09:20;102823.53;;;-1.51;81.29
77216;BME280;66210;53.282;9.864;2023-04-03T04:11:48;102824.91;;;-1.53;80.55
77216;BME280;66210;53.282;9.864;2023-04-03T04:14:14;102818.66;;;-1.56;81.43
77216;BME280;66210;53.282;9.864;2023-04-03T04:16:41;102825.25;;;-1.57;80.74
77216;BME280;66210;53.282;9.864;2023-04-03T04:19:08;102827.53;;;-1.58;80.99
77216;BME280;66210;53.282;9.864;2023-04-03T04:21:35;102827.53;;;-1.58;80.48
77216;BME280;66210;53.282;9.864;2023-04-03T04:24:02;102830.03;;;-1.58;80.96
77216;BME280;66210;53.282;9.864;2023-04-03T04:26:29;102836.78;;;-1.57;80.87
77216;BME280;66210;53.282;9.864;2023-04-03T04:28:55;102832.31;;;-1.60;80.17
77216;BME280;66210;53.282;9.864;2023-04-03T04:31:22;102827.84;;;-1.62;80.54
77216;BME280;66210;53.282;9.864;2023-04-03T04:33:49;102840.69;;;-1.59;80.53
77216;BME280;66210;53.282;9.864;2023-04-03T04:36:16;102839.78;;;-1.60;79.97
77216;BME280;66210;53.282;9.864;2023-04-03T04:38:43;102847.28;;;-1.60;80.31
77216;BME280;66210;53.282;9.864;2023-04-03T04:41:10;102841.19;;;-1.62;80.45
77216;BME280;66210;53.282;9.864;2023-04-03T04:43:37;102843.69;;;-1.62;80.77
77216;BME280;66210;53.282;9.864;2023-04-03T04:46:09;102842.78;;;-1.62;80.56
77216;BME280;66210;53.282;9.864;2023-04-03T04:48:36;102849.38;;;-1.63;81.19
77216;BME280;66210;53.282;9.864;2023-04-03T04:51:03;102850.28;;;-1.62;80.93
77216;BME280;66210;53.282;9.864;2023-04-03T04:53:30;102853.66;;;-1.62;80.95
77216;BME280;66210;53.282;9.864;2023-04-03T04:55:57;102853.66;;;-1.62;80.50
77216;BME280;66210;53.282;9.864;2023-04-03T04:58:24;102859.56;;;-1.61;80.90
77216;BME280;66210;53.282;9.864;2023-04-03T05:01:06;102860.44;;;-1.61;81.13
77216;BME280;66210;53.282;9.864;2023-04-03T05:03:34;102869.53;;;-1.61;81.50
77216;BME280;66210;53.282;9.864;2023-04-03T05:06:01;102865.94;;;-1.63;81.01
77216;BME280;66210;53.282;9.864;2023-04-03T05:08:29;102863.63;;;-1.62;81.42
77216;BME280;66210;53.282;9.864;2023-04-03T05:10:56;102871.81;;;-1.63;81.71
77216;BME280;66210;53.282;9.864;2023-04-03T05:13:23;102875.41;;;-1.61;80.78
77216;BME280;66210;53.282;9.864;2023-04-03T05:15:50;102873.81;;;-1.60;80.26
77216;BME280;66210;53.282;9.864;2023-04-03T05:18:16;102876.38;;;-1.53;80.66
77216;BME280;66210;53.282;9.864;2023-04-03T05:20:43;102883.03;;;-1.47;80.57
77216;BME280;66210;53.282;9.864;2023-04-03T05:23:10;102879.75;;;-1.40;80.55
77216;BME280;66210;53.282;9.864;2023-04-03T05:25:38;102881.13;;;-1.29;80.88
77216;BME280;66210;53.282;9.864;2023-04-03T05:28:05;102886.56;;;-1.19;80.62
77216;BME280;66210;53.282;9.864;2023-04-03T05:30:32;102882.94;;;-1.08;81.25
77216;BME280;66210;53.282;9.864;2023-04-03T05:32:59;102882.69;;;-0.97;81.13
77216;BME280;66210;53.282;9.864;2023-04-03T05:35:26;102887.84;;;-0.82;80.84
77216;BME280;66210;53.282;9.864;2023-04-03T05:37:52;102891.00;;;-0.71;80.71
77216;BME280;66210;53.282;9.864;2023-04-03T05:40:19;102876.63;;;-0.59;80.65
77216;BME280;66210;53.282;9.864;2023-04-03T05:42:46;102886.94;;;-0.43;80.31
77216;BME280;66210;53.282;9.864;2023-04-03T05:45:13;102887.06;;;-0.29;80.66
77216;BME280;66210;53.282;9.864;2023-04-03T05:47:39;102886.28;;;-0.15;80.42
77216;BME280;66210;53.282;9.864;2023-04-03T05:50:06;102895.25;;;-0.03;80.32
77216;BME280;66210;53.282;9.864;2023-04-03T05:52:36;102889.09;;;0.08;79.78
77216;BME280;66210;53.282;9.864;2023-04-03T05:55:04;102898.47;;;0.24;80.02
77216;BME280;66210;53.282;9.864;2023-04-03T05:57:32;102896.19;;;0.32;80.57
77216;BME280;66210;53.282;9.864;2023-04-03T05:59:59;102902.31;;;0.41;79.60
77216;BME280;66210;53.282;9.864;2023-04-03T06:02:26;102898.41;;;0.51;80.06
77216;BME280;66210;53.282;9.864;2023-04-03T06:04:53;102894.34;;;0.58;79.97
77216;BME280;66210;53.282;9.864;2023-04-03T06:07:22;102903.50;;;0.72;79.89
77216;BME280;66210;53.282;9.864;2023-04-03T06:09:50;102899.59;;;0.81;79.57
77216;BME280;66210;53.282;9.864;2023-04-03T06:12:18;102909.09;;;0.91;79.72
77216;BME280;66210;53.282;9.864;2023-04-03T06:14:45;102895.88;;;0.92;80.11
77216;BME280;66210;53.282;9.864;2023-04-03T06:17:12;102903.78;;;1.10;79.52
77216;BME280;66210;53.282;9.864;2023-04-03T06:19:39;102905.78;;;1.19;79.86
77216;BME280;66210;53.282;9.864;2023-04-03T06:22:07;102901.84;;;1.29;79.89
77216;BME280;66210;53.282;9.864;2023-04-03T06:24:34;102895.22;;;1.36;78.90
77216;BME280;66210;53.282;9.864;2023-04-03T06:27:02;102895.75;;;1.41;79.06
77216;BME280;66210;53.282;9.864;2023-04-03T06:29:28;102907.03;;;1.52;78.20
77216;BME280;66210;53.282;9.864;2023-04-03T06:31:55;102906.69;;;1.56;77.72
77216;BME280;66210;53.282;9.864;2023-04-03T06:34:22;102910.81;;;1.62;78.02
77216;BME280;66210;53.282;9.864;2023-04-03T06:36:48;102909.72;;;1.67;78.07
77216;BME280;66210;53.282;9.864;2023-04-03T06:39:19;102913.28;;;1.77;77.87
77216;BME280;66210;53.282;9.864;2023-04-03T06:41:50;102912.59;;;1.85;77.46
77216;BME280;66210;53.282;9.864;2023-04-03T06:44:17;102910.94;;;1.93;77.10
77216;BME280;66210;53.282;9.864;2023-04-03T06:46:44;102920.25;;;2.01;76.67
77216;BME280;66210;53.282;9.864;2023-04-03T06:49:12;102920.78;;;2.05;75.67
77216;BME280;66210;53.282;9.864;2023-04-03T06:51:38;102919.69;;;2.11;75.41
77216;BME280;66210;53.282;9.864;2023-04-03T06:54:06;102919.00;;;2.12;74.62
77216;BME280;66210;53.282;9.864;2023-04-03T06:56:35;102923.81;;;2.17;73.36
77216;BME280;66210;53.282;9.864;2023-04-03T06:59:02;102933.13;;;2.18;73.06
77216;BME280;66210;53.282;9.864;2023-04-03T07:01:29;102935.84;;;2.20;72.77
77216;BME280;66210;53.282;9.864;2023-04-03T07:03:57;102939.56;;;2.23;71.61
77216;BME280;66210;53.282;9.864;2023-04-03T07:06:24;102937.94;;;2.24;71.34
77216;BME280;66210;53.282;9.864;2023-04-03T07:08:54;102933.84;;;2.24;69.90
77216;BME280;66210;53.282;9.864;2023-04-03T07:11:21;102943.34;;;2.27;70.02
77216;BME280;66210;53.282;9.864;2023-04-03T07:13:49;102937.25;;;2.25;69.77
77216;BME280;66210;53.282;9.864;2023-04-03T07:16:16;102938.09;;;2.33;70.50
77216;BME280;66210;53.282;9.864;2023-04-03T07:18:43;102949.56;;;2.45;68.77
77216;BME280;66210;53.282;9.864;2023-04-03T07:21:10;102947.91;;;2.53;68.58
77216;BME280;66210;53.282;9.864;2023-04-03T07:23:37;102946.66;;;2.56;67.44
77216;BME280;66210;53.282;9.864;2023-04-03T07:26:04;102946.66;;;2.56;68.83
77216;BME280;66210;53.282;9.864;2023-04-03T07:28:31;102936.75;;;2.58;67.38
77216;BME280;66210;53.282;9.864;2023-04-03T07:31:01;102943.25;;;2.56;67.90
77216;BME280;66210;53.282;9.864;2023-04-03T07:33:29;102957.00;;;2.66;67.57
77216;BME280;66210;53.282;9.864;2023-04-03T07:35:56;102956.28;;;2.67;67.06
77216;BME280;66210;53.282;9.864;2023-04-03T07:38:23;102949.28;;;2.72;66.93
77216;BME280;66210;53.282;9.864;2023-04-03T07:40:50;102950.50;;;2.76;67.11
77216;BME280;66210;53.282;9.864;2023-04-03T07:43:20;102949.75;;;2.84;68.36
77216;BME280;66210;53.282;9.864;2023-04-03T07:45:48;102949.91;;;2.92;67.56
77216;BME280;66210;53.282;9.864;2023-04-03T07:48:26;102944.28;;;3.02;68.01
77216;BME280;66210;53.282;9.864;2023-04-03T07:50:53;102946.72;;;3.17;68.28
77216;BME280;66210;53.282;9.864;2023-04-03T07:53:19;102949.88;;;3.30;67.61
77216;BME280;66210;53.282;9.864;2023-04-03T07:55:47;102944.63;;;3.36;65.75
77216;BME280;66210;53.282;9.864;2023-04-03T07:58:17;102939.78;;;3.37;66.41
77216;BME280;66210;53.282;9.864;2023-04-03T08:00:44;102950.28;;;3.49;66.12
77216;BME280;66210;53.282;9.864;2023-04-03T08:03:11;102938.56;;;3.57;65.95
77216;BME280;66210;53.282;9.864;2023-04-03T08:05:41;102944.59;;;3.66;66.21
77216;BME280;66210;53.282;9.864;2023-04-03T08:08:10;102952.47;;;3.69;64.62
77216;BME280;66210;53.282;9.864;2023-04-03T08:10:37;102948.88;;;3.67;63.61
77216;BME280;66210;53.282;9.864;2023-04-03T08:13:06;102941.41;;;3.60;64.12
77216;BME280;66210;53.282;9.864;2023-04-03T08:15:33;102943.19;;;3.61;64.80
77216;BME280;66210;53.282;9.864;2023-04-03T08:18:00;102941.03;;;3.64;63.87
77216;BME280;66210;53.282;9.864;2023-04-03T08:20:27;102943.88;;;3.67;63.65
77216;BME280;66210;53.282;9.864;2023-04-03T08:22:54;102946.16;;;3.72;64.35
77216;BME280;66210;53.282;9.864;2023-04-03T08:25:21;102951.31;;;3.81;62.61
77216;BME280;66210;53.282;9.864;2023-04-03T08:27:48;102941.31;;;3.90;61.80
77216;BME280;66210;53.282;9.864;2023-04-03T08:30:14;102942.16;;;3.98;62.21
77216;BME280;66210;53.282;9.864;2023-04-03T08:32:41;102943.88;;;4.06;61.70
77216;BME280;66210;53.282;9.864;2023-04-03T08:35:10;102939.28;;;4.18;61.50
77216;BME280;66210;53.282;9.864;2023-04-03T08:37:37;102936.84;;;4.26;61.65
77216;BME280;66210;53.282;9.864;2023-04-03T08:40:06;102936.94;;;4.35;59.26
77216;BME280;66210;53.282;9.864;2023-04-03T08:42:45;102933.44;;;4.42;60.39
77216;BME280;66210;53.282;9.864;2023-04-03T08:45:21;102939.59;;;4.52;58.20
77216;BME280;66210;53.282;9.864;2023-04-03T08:50:34;102929.38;;;4.67;58.32
77216;BME280;66210;53.282;9.864;2023-04-03T08:53:03;102931.31;;;4.69;57.98
77216;BME280;66210;53.282;9.864;2023-04-03T08:55:39;102926.03;;;4.75;58.20
77216;BME280;66210;53.282;9.864;2023-04-03T08:58:11;102923.75;;;4.85;58.07
77216;BME280;66210;53.282;9.864;2023-04-03T09:01:03;102923.41;;;4.98;59.00
77216;BME280;66210;53.282;9.864;2023-04-03T09:03:39;102928.56;;;4.99;56.97
77216;BME280;66210;53.282;9.864;2023-04-03T09:06:12;102922.53;;;5.06;55.50
77216;BME280;66210;53.282;9.864;2023-04-03T09:08:49;102928.53;;;5.15;55.48
77216;BME280;66210;53.282;9.864;2023-04-03T09:11:24;102925.34;;;5.25;54.18
77216;BME280;66210;53.282;9.864;2023-04-03T09:14:02;102917.03;;;5.26;54.24
77216;BME280;66210;53.282;9.864;2023-04-03T09:16:39;102919.13;;;5.30;55.92
77216;BME280;66210;53.282;9.864;2023-04-03T09:22:11;102913.31;;;5.47;53.66
77216;BME280;66210;53.282;9.864;2023-04-03T09:24:40;102914.66;;;5.52;54.42
77216;BME280;66210;53.282;9.864;2023-04-03T09:27:11;102907.81;;;5.51;53.55
77216;BME280;66210;53.282;9.864;2023-04-03T09:29:43;102906.47;;;5.46;52.47
77216;BME280;66210;53.282;9.864;2023-04-03T09:32:21;102912.09;;;5.44;50.91
77216;BME280;66210;53.282;9.864;2023-04-03T09:34:53;102909.72;;;5.45;52.66
77216;BME280;66210;53.282;9.864;2023-04-03T09:37:37;102903.41;;;5.57;48.32
77216;BME280;66210;53.282;9.864;2023-04-03T09:42:58;102903.75;;;5.78;50.26
77216;BME280;66210;53.282;9.864;2023-04-03T09:45:32;102910.75;;;5.80;47.17
77216;BME280;66210;53.282;9.864;2023-04-03T09:55:53;102888.59;;;6.63;49.88
77216;BME280;66210;53.282;9.864;2023-04-03T09:58:39;102890.78;;;7.04;48.41
77216;BME280;66210;53.282;9.864;2023-04-03T10:06:31;102883.34;;;7.87;43.75
77216;BME280;66210;53.282;9.864;2023-04-03T10:09:00;102884.50;;;7.90;43.06
77216;BME280;66210;53.282;9.864;2023-04-03T10:11:29;102880.69;;;8.04;44.77
77216;BME280;66210;53.282;9.864;2023-04-03T10:14:00;102873.69;;;8.02;39.46
77216;BME280;66210;53.282;9.864;2023-04-03T10:16:41;102878.25;;;7.59;39.23
77216;BME280;66210;53.282;9.864;2023-04-03T10:22:23;102878.03;;;7.02;39.91
77216;BME280;66210;53.282;9.864;2023-04-03T10:24:57;102874.47;;;6.83;40.38
77216;BME280;66210;53.282;9.864;2023-04-03T10:27:44;102862.00;;;6.84;41.86
77216;BME280;66210;53.282;9.864;2023-04-03T10:30:38;102864.81;;;7.33;44.30
77216;BME280;66210;53.282;9.864;2023-04-03T10:36:28;102854.94;;;8.00;38.11
77216;BME280;66210;53.282;9.864;2023-04-03T10:42:02;102852.81;;;7.58;39.68
77216;BME280;66210;53.282;9.864;2023-04-03T10:47:32;102845.22;;;7.21;41.89
77216;BME280;66210;53.282;9.864;2023-04-03T10:55:43;102835.25;;;7.32;38.81
77216;BME280;66210;53.282;9.864;2023-04-03T10:58:26;102840.34;;;7.23;41.35
77216;BME280;66210;53.282;9.864;2023-04-03T11:01:01;102830.59;;;7.64;43.21
77216;BME280;66210;53.282;9.864;2023-04-03T11:03:33;102827.16;;;7.72;38.57
77216;BME280;66210;53.282;9.864;2023-04-03T11:06:05;102816.16;;;7.90;40.67
77216;BME280;66210;53.282;9.864;2023-04-03T11:08:42;102819.72;;;8.30;40.36
77216;BME280;66210;53.282;9.864;2023-04-03T11:11:19;102822.19;;;8.39;39.08
77216;BME280;66210;53.282;9.864;2023-04-03T11:13:56;102812.75;;;8.76;39.70
77216;BME280;66210;53.282;9.864;2023-04-03T11:16:28;102815.81;;;8.82;36.82
77216;BME280;66210;53.282;9.864;2023-04-03T11:19:02;102816.16;;;8.77;37.61
77216;BME280;66210;53.282;9.864;2023-04-03T11:21:43;102802.94;;;8.60;37.94
77216;BME280;66210;53.282;9.864;2023-04-03T11:24:19;102819.50;;;8.38;37.74
77216;BME280;66210;53.282;9.864;2023-04-03T11:26:48;102811.31;;;8.21;38.21
77216;BME280;66210;53.282;9.864;2023-04-03T11:29:21;102811.69;;;8.07;38.48
77216;BME280;66210;53.282;9.864;2023-04-03T11:35:13;102796.75;;;8.19;38.66
77216;BME280;66210;53.282;9.864;2023-04-03T11:37:44;102798.75;;;8.23;38.70
77216;BME280;66210;53.282;9.864;2023-04-03T11:42:55;102800.22;;;7.91;37.67
77216;BME280;66210;53.282;9.864;2023-04-03T11:50:51;102802.44;;;7.42;38.13
77216;BME280;66210;53.282;9.864;2023-04-03T11:58:22;102781.63;;;7.44;39.70
77216;BME280;66210;53.282;9.864;2023-04-03T12:00:55;102771.22;;;7.41;39.60
77216;BME280;66210;53.282;9.864;2023-04-03T12:13:37;102776.13;;;7.67;41.50
77216;BME280;66210;53.282;9.864;2023-04-03T12:16:06;102769.78;;;7.62;42.42
77216;BME280;66210;53.282;9.864;2023-04-03T12:21:17;102760.66;;;7.64;42.47
77216;BME280;66210;53.282;9.864;2023-04-03T12:26:43;102762.88;;;8.08;40.84
77216;BME280;66210;53.282;9.864;2023-04-03T12:29:21;102757.69;;;8.36;40.43
77216;BME280;66210;53.282;9.864;2023-04-03T12:32:04;102759.84;;;8.60;40.43
77216;BME280;66210;53.282;9.864;2023-04-03T12:35:06;102753.72;;;8.77;40.23
77216;BME280;66210;53.282;9.864;2023-04-03T12:37:48;102756.94;;;8.95;40.08
77216;BME280;66210;53.282;9.864;2023-04-03T12:40:43;102745.53;;;9.00;39.43
77216;BME280;66210;53.282;9.864;2023-04-03T12:43:25;102729.69;;;8.92;38.70
77216;BME280;66210;53.282;9.864;2023-04-03T12:48:37;102732.84;;;8.61;39.17
77216;BME280;66210;53.282;9.864;2023-04-03T12:51:05;102736.41;;;8.52;39.19
77216;BME280;66210;53.282;9.864;2023-04-03T12:53:35;102739.16;;;8.45;39.99
77216;BME280;66210;53.282;9.864;2023-04-03T12:56:30;102741.56;;;8.44;40.74
77216;BME280;66210;53.282;9.864;2023-04-03T12:59:25;102734.88;;;8.36;39.64
77216;BME280;66210;53.282;9.864;2023-04-03T13:01:58;102731.41;;;8.25;40.16
77216;BME280;66210;53.282;9.864;2023-04-03T13:04:25;102736.69;;;8.18;39.65
77216;BME280;66210;53.282;9.864;2023-04-03T13:06:53;102734.25;;;8.09;40.67
77216;BME280;66210;53.282;9.864;2023-04-03T13:11:58;102730.72;;;7.88;41.72
77216;BME280;66210;53.282;9.864;2023-04-03T13:14:27;102727.63;;;7.82;42.81
77216;BME280;66210;53.282;9.864;2023-04-03T13:17:02;102731.25;;;7.75;42.86
77216;BME280;66210;53.282;9.864;2023-04-03T13:19:30;102736.59;;;7.59;42.72
77216;BME280;66210;53.282;9.864;2023-04-03T13:22:04;102730.59;;;7.40;43.55
77216;BME280;66210;53.282;9.864;2023-04-03T13:24:35;102722.97;;;7.48;44.26
77216;BME280;66210;53.282;9.864;2023-04-03T13:27:03;102724.91;;;7.51;42.53
77216;BME280;66210;53.282;9.864;2023-04-03T13:29:38;102729.25;;;7.43;42.70
77216;BME280;66210;53.282;9.864;2023-04-03T13:32:06;102721.47;;;7.32;43.30
77216;BME280;66210;53.282;9.864;2023-04-03T13:34:39;102720.88;;;7.25;42.97
77216;BME280;66210;53.282;9.864;2023-04-03T13:37:19;102723.50;;;7.08;41.64
77216;BME280;66210;53.282;9.864;2023-04-03T13:39:57;102713.13;;;7.05;42.21
77216;BME280;66210;53.282;9.864;2023-04-03T13:42:31;102710.72;;;7.15;43.07
77216;BME280;66210;53.282;9.864;2023-04-03T13:47:45;102716.81;;;7.55;42.38
77216;BME280;66210;53.282;9.864;2023-04-03T13:50:24;102708.84;;;7.69;40.80
77216;BME280;66210;53.282;9.864;2023-04-03T13:53:12;102707.13;;;7.60;40.62
77216;BME280;66210;53.282;9.864;2023-04-03T13:58:31;102702.63;;;7.19;42.71
77216;BME280;66210;53.282;9.864;2023-04-03T14:01:09;102699.91;;;6.99;42.99
77216;BME280;66210;53.282;9.864;2023-04-03T14:03:45;102689.31;;;6.84;42.96
77216;BME280;66210;53.282;9.864;2023-04-03T14:06:15;102704.59;;;6.85;43.61
77216;BME280;66210;53.282;9.864;2023-04-03T14:08:43;102690.03;;;6.83;42.63
77216;BME280;66210;53.282;9.864;2023-04-03T14:11:22;102692.53;;;6.92;43.27
77216;BME280;66210;53.282;9.864;2023-04-03T14:13:51;102692.78;;;6.95;43.06
77216;BME280;66210;53.282;9.864;2023-04-03T14:16:20;102683.75;;;6.88;43.07
77216;BME280;66210;53.282;9.864;2023-04-03T14:18:48;102694.34;;;6.84;43.22
77216;BME280;66210;53.282;9.864;2023-04-03T14:21:18;102682.59;;;6.84;43.75
77216;BME280;66210;53.282;9.864;2023-04-03T14:23:46;102681.38;;;6.90;43.76
77216;BME280;66210;53.282;9.864;2023-04-03T14:26:16;102689.38;;;6.94;43.34
77216;BME280;66210;53.282;9.864;2023-04-03T14:28:50;102683.91;;;6.90;42.85
77216;BME280;66210;53.282;9.864;2023-04-03T14:31:17;102681.41;;;6.81;42.15
77216;BME280;66210;53.282;9.864;2023-04-03T14:33:45;102675.06;;;6.76;43.18
77216;BME280;66210;53.282;9.864;2023-04-03T14:36:25;102673.53;;;6.86;43.80